CheckWX is a tool to help pilots better visualize weather data.  It is not intended as a substitute for an official pre-flight weather briefing.

11:07:15 UTC

KMGG METAR
Maple Lake Municipal-Bill Mavencamp Sr Field Airport
Maple Lake, Minnesota, USA
Current

12 mins ago

KMGG 241055Z AUTO 00000KT 10SM DZ OVC027 11/10 A3001 RMK AO2 T01100096
Observed
May-24 @ 10:55 UTC
Visibility
10 SM
Flight Rules
MVFR
Conditions
Drizzle
Cloud Levels
  • Overcast at 2,700' AGL
Temperature
11°C / 52°F
Dewpoint
10°C / 50°F
Humidity
94%
Altimeter
30.01" Hg
Pressure
1016.22 hPa
Previous

32 mins ago

KMGG 241035Z AUTO 00000KT 10SM BKN029 11/10 A3001 RMK AO2 T01110095
Observed
May-24 @ 10:35 UTC
Visibility
10 SM
Flight Rules
MVFR
Cloud Levels
  • Broken at 2,900' AGL
Temperature
11°C / 52°F
Dewpoint
10°C / 50°F
Humidity
94%
Altimeter
30.01" Hg
Pressure
1016.22 hPa
Previous

51 mins ago

KMGG 241016Z AUTO 00000KT 10SM SCT033 SCT075 SCT100 11/10 A3002 RMK AO2 T01110095
Observed
May-24 @ 10:16 UTC
Visibility
10 SM
Flight Rules
VFR
Cloud Levels
  • Scattered at 3,300' AGL
  • Scattered at 7,500' AGL
  • Scattered at 10,000' AGL
Temperature
11°C / 52°F
Dewpoint
10°C / 50°F
Humidity
94%
Altimeter
30.02" Hg
Pressure
1016.62 hPa